sensor_id;sensor_type;location;lat;lon;timestamp;pressure;altitude;pressure_sealevel;temperature;humidity
39449;BME280;25151;45.566;9.382;2023-03-19T00:00:10;100007.66;;;20.37;53.11
39449;BME280;25151;45.566;9.382;2023-03-19T00:03:14;100006.09;;;20.36;53.16
39449;BME280;25151;45.566;9.382;2023-03-19T00:06:19;100006.88;;;20.36;53.08
39449;BME280;25151;45.566;9.382;2023-03-19T00:09:24;100006.88;;;20.36;53.09
39449;BME280;25151;45.566;9.382;2023-03-19T00:12:32;100003.72;;;20.34;53.15
39449;BME280;25151;45.566;9.382;2023-03-19T00:15:37;100002.59;;;20.32;53.33
39449;BME280;25151;45.566;9.382;2023-03-19T00:18:40;100016.94;;;20.34;53.12
39449;BME280;25151;45.566;9.382;2023-03-19T00:21:46;100010.22;;;20.31;53.21
39449;BME280;25151;45.566;9.382;2023-03-19T00:24:54;100013.34;;;20.33;53.26
39449;BME280;25151;45.566;9.382;2023-03-19T00:27:58;100016.59;;;20.32;53.25
39449;BME280;25151;45.566;9.382;2023-03-19T00:31:28;100010.22;;;20.31;53.23
39449;BME280;25151;45.566;9.382;2023-03-19T00:34:30;100007.16;;;20.26;53.23
39449;BME280;25151;45.566;9.382;2023-03-19T00:37:32;100002.34;;;20.26;53.35
39449;BME280;25151;45.566;9.382;2023-03-19T00:40:36;100007.50;;;20.28;53.38
39449;BME280;25151;45.566;9.382;2023-03-19T00:43:43;99995.16;;;20.25;53.48
39449;BME280;25151;45.566;9.382;2023-03-19T00:46:52;99995.28;;;20.22;53.46
39449;BME280;25151;45.566;9.382;2023-03-19T00:49:55;99998.06;;;20.22;53.44
39449;BME280;25151;45.566;9.382;2023-03-19T00:52:57;100011.97;;;20.25;53.48
39449;BME280;25151;45.566;9.382;2023-03-19T00:56:03;100000.41;;;20.23;53.37
39449;BME280;25151;45.566;9.382;2023-03-19T00:59:07;99996.59;;;20.17;53.29
39449;BME280;25151;45.566;9.382;2023-03-19T01:02:09;100003.78;;;20.18;53.37
39449;BME280;25151;45.566;9.382;2023-03-19T01:05:13;100004.56;;;20.19;53.48
39449;BME280;25151;45.566;9.382;2023-03-19T01:08:16;99997.06;;;20.16;53.62
39449;BME280;25151;45.566;9.382;2023-03-19T01:11:20;100008.94;;;20.20;53.49
39449;BME280;25151;45.566;9.382;2023-03-19T01:14:25;100002.28;;;20.13;53.48
39449;BME280;25151;45.566;9.382;2023-03-19T01:17:28;100007.44;;;20.15;53.37
39449;BME280;25151;45.566;9.382;2023-03-19T01:20:33;100000.38;;;20.10;53.37
39449;BME280;25151;45.566;9.382;2023-03-19T01:23:35;100009.13;;;20.12;53.40
39449;BME280;25151;45.566;9.382;2023-03-19T01:26:39;100003.19;;;20.10;53.34
39449;BME280;25151;45.566;9.382;2023-03-19T01:29:41;100005.97;;;20.10;53.44
39449;BME280;25151;45.566;9.382;2023-03-19T01:32:45;99991.66;;;20.08;53.56
39449;BME280;25151;45.566;9.382;2023-03-19T01:35:50;99992.44;;;20.09;53.53
39449;BME280;25151;45.566;9.382;2023-03-19T01:38:55;99994.00;;;20.10;53.63
39449;BME280;25151;45.566;9.382;2023-03-19T01:42:00;99988.50;;;20.06;53.48
39449;BME280;25151;45.566;9.382;2023-03-19T01:45:36;99993.31;;;20.06;53.54
39449;BME280;25151;45.566;9.382;2023-03-19T01:48:52;99992.16;;;20.03;53.73
39449;BME280;25151;45.566;9.382;2023-03-19T01:51:58;99989.72;;;20.05;53.42
39449;BME280;25151;45.566;9.382;2023-03-19T01:55:03;99977.84;;;20.01;53.52
39449;BME280;25151;45.566;9.382;2023-03-19T01:58:06;99976.59;;;20.02;53.52
39449;BME280;25151;45.566;9.382;2023-03-19T02:01:10;99980.53;;;20.05;53.64
39449;BME280;25151;45.566;9.382;2023-03-19T02:04:13;99976.59;;;20.02;53.65
39449;BME280;25151;45.566;9.382;2023-03-19T02:07:15;99975.81;;;20.02;53.50
39449;BME280;25151;45.566;9.382;2023-03-19T02:10:19;99971.00;;;20.02;53.51
39449;BME280;25151;45.566;9.382;2023-03-19T02:13:29;99961.50;;;20.00;53.71
39449;BME280;25151;45.566;9.382;2023-03-19T02:16:34;99967.09;;;20.00;53.76
39449;BME280;25151;45.566;9.382;2023-03-19T02:19:53;99967.53;;;19.98;53.68
39449;BME280;25151;45.566;9.382;2023-03-19T02:26:34;99951.97;;;19.97;53.46
39449;BME280;25151;45.566;9.382;2023-03-19T02:29:38;99948.03;;;19.95;53.66
39449;BME280;25151;45.566;9.382;2023-03-19T02:32:41;99954.41;;;19.95;53.78
39449;BME280;25151;45.566;9.382;2023-03-19T02:35:45;99948.47;;;19.93;53.55
39449;BME280;25151;45.566;9.382;2023-03-19T02:38:49;99946.91;;;19.92;53.67
39449;BME280;25151;45.566;9.382;2023-03-19T02:41:54;99949.72;;;19.92;53.72
39449;BME280;25151;45.566;9.382;2023-03-19T02:44:58;99953.72;;;19.91;53.68
39449;BME280;25151;45.566;9.382;2023-03-19T02:48:01;99952.50;;;19.92;53.65
39449;BME280;25151;45.566;9.382;2023-03-19T02:51:04;99942.53;;;19.91;53.73
39449;BME280;25151;45.566;9.382;2023-03-19T02:54:08;99943.44;;;19.88;53.86
39449;BME280;25151;45.566;9.382;2023-03-19T02:57:12;99949.34;;;19.90;53.57
39449;BME280;25151;45.566;9.382;2023-03-19T03:00:14;99961.31;;;19.90;53.79
39449;BME280;25151;45.566;9.382;2023-03-19T03:03:18;99955.03;;;19.86;53.71
39449;BME280;25151;45.566;9.382;2023-03-19T03:06:27;99952.25;;;19.86;53.66
39449;BME280;25151;45.566;9.382;2023-03-19T03:09:30;99955.81;;;19.87;53.69
39449;BME280;25151;45.566;9.382;2023-03-19T03:12:32;99955.50;;;19.85;53.76
39449;BME280;25151;45.566;9.382;2023-03-19T03:15:35;99965.00;;;19.87;53.88
39449;BME280;25151;45.566;9.382;2023-03-19T03:18:39;99961.97;;;19.82;53.68
39449;BME280;25151;45.566;9.382;2023-03-19T03:21:43;99960.72;;;19.83;53.78
39449;BME280;25151;45.566;9.382;2023-03-19T03:24:45;99955.59;;;19.81;53.54
39449;BME280;25151;45.566;9.382;2023-03-19T03:27:47;99953.25;;;19.80;53.95
39449;BME280;25151;45.566;9.382;2023-03-19T03:30:56;99950.09;;;19.78;53.86
39449;BME280;25151;45.566;9.382;2023-03-19T03:33:59;99956.38;;;19.82;53.69
39449;BME280;25151;45.566;9.382;2023-03-19T03:37:01;99964.44;;;19.80;53.85
39449;BME280;25151;45.566;9.382;2023-03-19T03:40:05;99963.63;;;19.79;53.99
39449;BME280;25151;45.566;9.382;2023-03-19T03:43:09;99959.72;;;19.77;53.89
39449;BME280;25151;45.566;9.382;2023-03-19T03:46:12;99970.91;;;19.77;53.71
39449;BME280;25151;45.566;9.382;2023-03-19T03:49:14;99988.81;;;19.79;53.94
39449;BME280;25151;45.566;9.382;2023-03-19T03:52:18;100000.81;;;19.80;53.95
39449;BME280;25151;45.566;9.382;2023-03-19T03:55:20;99986.09;;;19.76;53.91
39449;BME280;25151;45.566;9.382;2023-03-19T03:58:24;99990.81;;;19.79;53.87
39449;BME280;25151;45.566;9.382;2023-03-19T04:01:27;99990.13;;;19.75;53.91
39449;BME280;25151;45.566;9.382;2023-03-19T04:04:32;99998.09;;;19.76;53.90
39449;BME280;25151;45.566;9.382;2023-03-19T04:07:36;100001.31;;;19.75;53.98
39449;BME280;25151;45.566;9.382;2023-03-19T04:10:40;100001.31;;;19.75;53.97
39449;BME280;25151;45.566;9.382;2023-03-19T04:13:43;100002.09;;;19.75;53.97
39449;BME280;25151;45.566;9.382;2023-03-19T04:16:46;100005.34;;;19.74;53.99
39449;BME280;25151;45.566;9.382;2023-03-19T04:19:49;100003.00;;;19.72;54.04
39449;BME280;25151;45.566;9.382;2023-03-19T04:22:52;99997.84;;;19.71;53.83
39449;BME280;25151;45.566;9.382;2023-03-19T04:26:04;100002.19;;;19.72;53.80
39449;BME280;25151;45.566;9.382;2023-03-19T04:29:10;100000.63;;;19.71;53.84
39449;BME280;25151;45.566;9.382;2023-03-19T04:32:13;100003.78;;;19.73;53.93
39449;BME280;25151;45.566;9.382;2023-03-19T04:35:19;99999.06;;;19.70;53.86
39449;BME280;25151;45.566;9.382;2023-03-19T04:38:24;100003.78;;;19.73;53.95
39449;BME280;25151;45.566;9.382;2023-03-19T04:41:31;100009.03;;;19.71;53.93
39449;BME280;25151;45.566;9.382;2023-03-19T04:44:35;100006.22;;;19.71;54.02
39449;BME280;25151;45.566;9.382;2023-03-19T04:47:40;99994.34;;;19.67;53.95
39449;BME280;25151;45.566;9.382;2023-03-19T04:50:45;99994.78;;;19.65;54.01
39449;BME280;25151;45.566;9.382;2023-03-19T04:53:52;99998.38;;;19.65;53.79
39449;BME280;25151;45.566;9.382;2023-03-19T04:56:55;100015.84;;;19.70;53.93
39449;BME280;25151;45.566;9.382;2023-03-19T04:59:59;100008.78;;;19.65;53.91
39449;BME280;25151;45.566;9.382;2023-03-19T05:03:02;100015.16;;;19.65;53.87
39449;BME280;25151;45.566;9.382;2023-03-19T05:06:10;100003.97;;;19.65;53.78
39449;BME280;25151;45.566;9.382;2023-03-19T05:09:14;99998.47;;;19.62;53.90
39449;BME280;25151;45.566;9.382;2023-03-19T05:12:21;100005.19;;;19.64;53.79
39449;BME280;25151;45.566;9.382;2023-03-19T05:15:23;100006.06;;;19.61;53.93
39449;BME280;25151;45.566;9.382;2023-03-19T05:18:26;100005.19;;;19.64;53.88
39449;BME280;25151;45.566;9.382;2023-03-19T05:21:29;100003.28;;;19.61;53.81
39449;BME280;25151;45.566;9.382;2023-03-19T05:24:36;99994.06;;;19.61;53.86
39449;BME280;25151;45.566;9.382;2023-03-19T05:27:40;99990.47;;;19.60;53.68
39449;BME280;25151;45.566;9.382;2023-03-19T05:30:43;99989.69;;;19.60;54.01
39449;BME280;25151;45.566;9.382;2023-03-19T05:33:45;100001.66;;;19.60;53.87
39449;BME280;25151;45.566;9.382;2023-03-19T05:36:51;99994.88;;;19.61;53.92
39449;BME280;25151;45.566;9.382;2023-03-19T05:39:53;100001.66;;;19.60;53.93
39449;BME280;25151;45.566;9.382;2023-03-19T05:42:56;100007.28;;;19.60;54.09
39449;BME280;25151;45.566;9.382;2023-03-19T05:46:01;100008.13;;;19.57;53.93
39449;BME280;25151;45.566;9.382;2023-03-19T05:49:03;100015.28;;;19.58;53.66
39449;BME280;25151;45.566;9.382;2023-03-19T05:52:07;100018.47;;;19.60;53.82
39449;BME280;25151;45.566;9.382;2023-03-19T05:55:13;100020.09;;;19.58;53.88
39449;BME280;25151;45.566;9.382;2023-03-19T05:58:14;100027.63;;;19.61;53.80
39449;BME280;25151;45.566;9.382;2023-03-19T06:01:18;100016.16;;;19.55;53.77
39449;BME280;25151;45.566;9.382;2023-03-19T06:04:21;100018.53;;;19.57;53.76
39449;BME280;25151;45.566;9.382;2023-03-19T06:07:26;100024.56;;;19.55;53.78
39449;BME280;25151;45.566;9.382;2023-03-19T06:10:35;100018.63;;;19.53;53.88
39449;BME280;25151;45.566;9.382;2023-03-19T06:13:43;100036.97;;;19.54;53.78
39449;BME280;25151;45.566;9.382;2023-03-19T06:16:52;100044.91;;;19.56;53.99
39449;BME280;25151;45.566;9.382;2023-03-19T06:20:03;100047.81;;;19.52;53.94
39449;BME280;25151;45.566;9.382;2023-03-19T06:23:14;100054.53;;;19.55;53.86
39449;BME280;25151;45.566;9.382;2023-03-19T06:26:22;100048.25;;;19.51;53.90
39449;BME280;25151;45.566;9.382;2023-03-19T06:29:27;100056.22;;;19.52;53.85
39449;BME280;25151;45.566;9.382;2023-03-19T06:32:32;100053.06;;;19.50;53.90
39449;BME280;25151;45.566;9.382;2023-03-19T06:35:40;100052.28;;;19.50;54.06
39449;BME280;25151;45.566;9.382;2023-03-19T06:38:47;100068.97;;;19.53;54.09
39449;BME280;25151;45.566;9.382;2023-03-19T06:41:52;100073.41;;;19.51;53.94
39449;BME280;25151;45.566;9.382;2023-03-19T06:44:54;100063.47;;;19.50;54.04
39449;BME280;25151;45.566;9.382;2023-03-19T06:47:55;100067.41;;;19.52;54.07
39449;BME280;25151;45.566;9.382;2023-03-19T06:51:00;100065.81;;;19.51;54.14
39449;BME280;25151;45.566;9.382;2023-03-19T06:54:05;100068.09;;;19.56;54.00
39449;BME280;25151;45.566;9.382;2023-03-19T06:57:06;100076.84;;;19.58;54.10
39449;BME280;25151;45.566;9.382;2023-03-19T07:00:08;100082.00;;;19.60;53.98
39449;BME280;25151;45.566;9.382;2023-03-19T07:03:11;100082.44;;;19.58;54.17
39449;BME280;25151;45.566;9.382;2023-03-19T07:06:21;100076.00;;;19.61;54.27
39449;BME280;25151;45.566;9.382;2023-03-19T07:14:01;100092.34;;;19.63;54.25
39449;BME280;25151;45.566;9.382;2023-03-19T07:21:42;100100.78;;;19.59;54.49
39449;BME280;25151;45.566;9.382;2023-03-19T07:24:52;100101.19;;;19.61;54.65
39449;BME280;25151;45.566;9.382;2023-03-19T07:27:59;100107.09;;;19.63;54.61
39449;BME280;25151;45.566;9.382;2023-03-19T07:31:10;100105.97;;;19.61;54.73
39449;BME280;25151;45.566;9.382;2023-03-19T07:34:21;100108.75;;;19.61;54.64
39449;BME280;25151;45.566;9.382;2023-03-19T07:37:31;100115.09;;;19.65;54.67
39449;BME280;25151;45.566;9.382;2023-03-19T07:40:41;100124.59;;;19.68;54.74
39449;BME280;25151;45.566;9.382;2023-03-19T07:43:52;100119.91;;;19.64;54.78
39449;BME280;25151;45.566;9.382;2023-03-19T07:47:27;100119.91;;;19.64;54.68
39449;BME280;25151;45.566;9.382;2023-03-19T07:50:34;100117.44;;;19.67;54.69
39449;BME280;25151;45.566;9.382;2023-03-19T07:53:57;100125.50;;;19.64;54.94
39449;BME280;25151;45.566;9.382;2023-03-19T07:57:16;100132.97;;;19.68;54.76
39449;BME280;25151;45.566;9.382;2023-03-19T08:00:40;100127.06;;;19.65;54.66
39449;BME280;25151;45.566;9.382;2023-03-19T08:04:08;100133.34;;;19.70;54.68
39449;BME280;25151;45.566;9.382;2023-03-19T08:07:18;100131.78;;;19.69;54.85
39449;BME280;25151;45.566;9.382;2023-03-19T08:14:25;100130.56;;;19.70;54.54
39449;BME280;25151;45.566;9.382;2023-03-19T08:18:05;100130.88;;;19.72;54.67
39449;BME280;25151;45.566;9.382;2023-03-19T08:21:38;100129.69;;;19.73;54.79
39449;BME280;25151;45.566;9.382;2023-03-19T08:25:31;100123.31;;;19.72;54.80
39449;BME280;25151;45.566;9.382;2023-03-19T08:28:45;100121.28;;;19.73;54.69
39449;BME280;25151;45.566;9.382;2023-03-19T08:32:05;100130.38;;;19.77;54.86
39449;BME280;25151;45.566;9.382;2023-03-19T08:35:41;100132.81;;;19.75;54.80
39449;BME280;25151;45.566;9.382;2023-03-19T08:43:07;100134.38;;;19.76;54.60
39449;BME280;25151;45.566;9.382;2023-03-19T08:46:19;100130.72;;;19.79;54.74
39449;BME280;25151;45.566;9.382;2023-03-19T09:04:59;100145.88;;;19.81;54.88
39449;BME280;25151;45.566;9.382;2023-03-19T09:27:33;100158.53;;;19.86;55.23
39449;BME280;25151;45.566;9.382;2023-03-19T09:59:35;100137.03;;;19.83;55.85
39449;BME280;25151;45.566;9.382;2023-03-19T10:27:43;100129.94;;;19.78;55.88
39449;BME280;25151;45.566;9.382;2023-03-19T10:35:06;100121.91;;;19.80;55.78
39449;BME280;25151;45.566;9.382;2023-03-19T10:38:40;100117.09;;;19.81;55.62
39449;BME280;25151;45.566;9.382;2023-03-19T10:45:33;100123.03;;;19.83;55.58
39449;BME280;25151;45.566;9.382;2023-03-19T10:48:47;100111.50;;;19.81;55.79
39449;BME280;25151;45.566;9.382;2023-03-19T10:52:49;100104.69;;;19.82;55.87
39449;BME280;25151;45.566;9.382;2023-03-19T10:55:55;100105.81;;;19.84;55.54
39449;BME280;25151;45.566;9.382;2023-03-19T10:59:19;100101.00;;;19.85;55.67
39449;BME280;25151;45.566;9.382;2023-03-19T11:02:30;100088.25;;;19.84;55.70
39449;BME280;25151;45.566;9.382;2023-03-19T11:05:41;100091.38;;;19.86;55.89
39449;BME280;25151;45.566;9.382;2023-03-19T11:15:38;100094.88;;;19.90;55.79
39449;BME280;25151;45.566;9.382;2023-03-19T11:19:26;100086.56;;;19.86;56.06
39449;BME280;25151;45.566;9.382;2023-03-19T11:22:39;100075.38;;;19.86;56.12
39449;BME280;25151;45.566;9.382;2023-03-19T11:26:17;100075.03;;;19.84;56.08
39449;BME280;25151;45.566;9.382;2023-03-19T11:29:47;100091.28;;;19.89;55.99
39449;BME280;25151;45.566;9.382;2023-03-19T11:36:36;100072.16;;;19.88;56.33
39449;BME280;25151;45.566;9.382;2023-03-19T11:40:14;100054.66;;;19.84;56.51
39449;BME280;25151;45.566;9.382;2023-03-19T11:43:53;100064.97;;;19.87;56.67
39449;BME280;25151;45.566;9.382;2023-03-19T11:47:20;100060.97;;;19.88;56.58
39449;BME280;25151;45.566;9.382;2023-03-19T11:54:10;100061.84;;;19.85;56.48
39449;BME280;25151;45.566;9.382;2023-03-19T12:00:55;100056.94;;;19.89;56.59
39449;BME280;25151;45.566;9.382;2023-03-19T12:08:16;100050.09;;;19.90;56.77
39449;BME280;25151;45.566;9.382;2023-03-19T12:27:21;100019.91;;;19.98;56.74
39449;BME280;25151;45.566;9.382;2023-03-19T12:37:34;100004.69;;;19.99;56.61
39449;BME280;25151;45.566;9.382;2023-03-19T12:49:24;100000.56;;;20.03;56.61
39449;BME280;25151;45.566;9.382;2023-03-19T12:53:12;99995.88;;;20.00;56.62
39449;BME280;25151;45.566;9.382;2023-03-19T12:56:49;99988.59;;;20.03;56.72
39449;BME280;25151;45.566;9.382;2023-03-19T13:04:30;99994.97;;;20.03;56.59
39449;BME280;25151;45.566;9.382;2023-03-19T13:12:02;99990.97;;;20.04;56.61
39449;BME280;25151;45.566;9.382;2023-03-19T13:20:00;99968.13;;;20.06;56.37
39449;BME280;25151;45.566;9.382;2023-03-19T13:23:45;99964.63;;;20.02;56.36
39449;BME280;25151;45.566;9.382;2023-03-19T13:31:42;99958.25;;;20.01;56.60
39449;BME280;25151;45.566;9.382;2023-03-19T13:38:49;99963.41;;;20.03;56.41
39449;BME280;25151;45.566;9.382;2023-03-19T13:45:42;99970.03;;;20.09;56.39
39449;BME280;25151;45.566;9.382;2023-03-19T13:51:49;99970.13;;;20.05;56.61
39449;BME280;25151;45.566;9.382;2023-03-19T13:54:54;99961.03;;;20.01;56.24
39449;BME280;25151;45.566;9.382;2023-03-19T14:04:30;99957.47;;;20.01;56.25
39449;BME280;25151;45.566;9.382;2023-03-19T16:26:55;99921.41;;;19.74;55.98
39449;BME280;25151;45.566;9.382;2023-03-19T16:30:44;99924.13;;;19.77;55.88
39449;BME280;25151;45.566;9.382;2023-03-19T16:34:29;99933.28;;;19.78;55.83
39449;BME280;25151;45.566;9.382;2023-03-19T16:37:49;99940.81;;;19.81;55.74
39449;BME280;25151;45.566;9.382;2023-03-19T16:41:33;99940.38;;;19.82;55.76
39449;BME280;25151;45.566;9.382;2023-03-19T16:52:23;99949.22;;;19.81;55.85
39449;BME280;25151;45.566;9.382;2023-03-19T16:59:28;99942.84;;;19.80;56.14
39449;BME280;25151;45.566;9.382;2023-03-19T17:02:52;99942.06;;;19.80;56.30
39449;BME280;25151;45.566;9.382;2023-03-19T17:06:19;99948.44;;;19.80;56.20
39449;BME280;25151;45.566;9.382;2023-03-19T17:09:31;99952.00;;;19.81;56.17
39449;BME280;25151;45.566;9.382;2023-03-19T17:12:35;99953.56;;;19.82;56.37
39449;BME280;25151;45.566;9.382;2023-03-19T17:33:29;99982.25;;;19.86;56.19
39449;BME280;25151;45.566;9.382;2023-03-19T17:36:38;99980.69;;;19.85;56.64
39449;BME280;25151;45.566;9.382;2023-03-19T17:39:45;99994.59;;;19.88;56.56
39449;BME280;25151;45.566;9.382;2023-03-19T17:42:53;100000.97;;;19.89;56.66
39449;BME280;25151;45.566;9.382;2023-03-19T17:45:58;99995.00;;;19.87;56.55
39449;BME280;25151;45.566;9.382;2023-03-19T17:49:01;99993.00;;;19.87;56.44
39449;BME280;25151;45.566;9.382;2023-03-19T17:52:11;99993.81;;;19.88;56.57
39449;BME280;25151;45.566;9.382;2023-03-19T17:58:22;99996.94;;;19.90;56.56
39449;BME280;25151;45.566;9.382;2023-03-19T18:01:28;100000.97;;;19.89;56.53
39449;BME280;25151;45.566;9.382;2023-03-19T18:04:28;100002.53;;;19.90;56.52
39449;BME280;25151;45.566;9.382;2023-03-19T18:07:30;100014.50;;;19.90;56.47
39449;BME280;25151;45.566;9.382;2023-03-19T18:10:32;100015.28;;;19.91;56.65
39449;BME280;25151;45.566;9.382;2023-03-19T18:13:35;100026.56;;;19.87;56.51
39449;BME280;25151;45.566;9.382;2023-03-19T18:16:38;100016.53;;;19.90;56.88
39449;BME280;25151;45.566;9.382;2023-03-19T18:19:39;100023.34;;;19.89;56.81
39449;BME280;25151;45.566;9.382;2023-03-19T18:22:40;100021.78;;;19.88;56.99
39449;BME280;25151;45.566;9.382;2023-03-19T18:25:45;100024.59;;;19.88;57.09
39449;BME280;25151;45.566;9.382;2023-03-19T18:28:47;100026.69;;;19.84;57.00
39449;BME280;25151;45.566;9.382;2023-03-19T18:31:52;100026.69;;;19.84;57.27
39449;BME280;25151;45.566;9.382;2023-03-19T18:34:55;100039.00;;;19.86;57.01
39449;BME280;25151;45.566;9.382;2023-03-19T18:37:58;100039.78;;;19.87;57.15
39449;BME280;25151;45.566;9.382;2023-03-19T18:41:02;100037.06;;;19.83;57.13
39449;BME280;25151;45.566;9.382;2023-03-19T18:44:05;100037.88;;;19.84;57.08
39449;BME280;25151;45.566;9.382;2023-03-19T18:47:14;100046.69;;;19.82;57.15
39449;BME280;25151;45.566;9.382;2023-03-19T18:50:24;100036.28;;;19.83;57.09
39449;BME280;25151;45.566;9.382;2023-03-19T18:53:26;100039.97;;;19.80;57.32
39449;BME280;25151;45.566;9.382;2023-03-19T18:56:31;100046.69;;;19.82;57.29
39449;BME280;25151;45.566;9.382;2023-03-19T18:59:35;100047.94;;;19.81;57.04
39449;BME280;25151;45.566;9.382;2023-03-19T19:03:16;100053.06;;;19.83;57.06
39449;BME280;25151;45.566;9.382;2023-03-19T19:06:54;100043.97;;;19.79;57.18
39449;BME280;25151;45.566;9.382;2023-03-19T19:09:58;100045.22;;;19.78;57.03
39449;BME280;25151;45.566;9.382;2023-03-19T19:13:09;100046.78;;;19.79;57.15
39449;BME280;25151;45.566;9.382;2023-03-19T19:20:50;100051.50;;;19.82;57.32
39449;BME280;25151;45.566;9.382;2023-03-19T19:24:23;100058.75;;;19.79;57.21
39449;BME280;25151;45.566;9.382;2023-03-19T19:27:27;100059.91;;;19.82;57.18
39449;BME280;25151;45.566;9.382;2023-03-19T19:30:35;100056.78;;;19.80;57.22
39449;BME280;25151;45.566;9.382;2023-03-19T19:33:40;100068.31;;;19.82;57.30
39449;BME280;25151;45.566;9.382;2023-03-19T19:36:46;100077.94;;;19.81;57.22
39449;BME280;25151;45.566;9.382;2023-03-19T19:39:52;100065.94;;;19.80;57.23
39449;BME280;25151;45.566;9.382;2023-03-19T19:43:00;100069.16;;;19.79;57.19
39449;BME280;25151;45.566;9.382;2023-03-19T19:46:14;100080.34;;;19.79;57.12
39449;BME280;25151;45.566;9.382;2023-03-19T19:49:25;100085.88;;;19.82;57.23
39449;BME280;25151;45.566;9.382;2023-03-19T19:52:34;100083.94;;;19.79;57.28
39449;BME280;25151;45.566;9.382;2023-03-19T19:55:53;100090.34;;;19.80;57.20
39449;BME280;25151;45.566;9.382;2023-03-19T19:59:11;100091.91;;;19.81;57.19
39449;BME280;25151;45.566;9.382;2023-03-19T20:02:28;100093.47;;;19.82;57.25
39449;BME280;25151;45.566;9.382;2023-03-19T20:05:41;100087.56;;;19.80;57.36
39449;BME280;25151;45.566;9.382;2023-03-19T20:12:53;100099.88;;;19.82;57.31
39449;BME280;25151;45.566;9.382;2023-03-19T20:16:05;100106.16;;;19.86;57.40
39449;BME280;25151;45.566;9.382;2023-03-19T20:19:39;100096.97;;;19.86;57.41
39449;BME280;25151;45.566;9.382;2023-03-19T20:23:04;100097.50;;;19.81;57.32
39449;BME280;25151;45.566;9.382;2023-03-19T20:26:22;100095.50;;;19.81;57.32
39449;BME280;25151;45.566;9.382;2023-03-19T20:29:39;100101.88;;;19.82;57.38
39449;BME280;25151;45.566;9.382;2023-03-19T20:32:52;100108.25;;;19.82;57.49
39449;BME280;25151;45.566;9.382;2023-03-19T20:36:04;100105.13;;;19.80;57.50
39449;BME280;25151;45.566;9.382;2023-03-19T20:39:19;100115.53;;;19.80;57.40
39449;BME280;25151;45.566;9.382;2023-03-19T20:42:49;100115.16;;;19.78;57.17
39449;BME280;25151;45.566;9.382;2023-03-19T20:46:19;100116.22;;;19.84;57.27
39449;BME280;25151;45.566;9.382;2023-03-19T20:49:36;100117.81;;;19.85;57.45
39449;BME280;25151;45.566;9.382;2023-03-19T20:52:45;100112.28;;;19.81;57.43
39449;BME280;25151;45.566;9.382;2023-03-19T20:55:51;100109.94;;;19.80;57.22
39449;BME280;25151;45.566;9.382;2023-03-19T20:59:00;100106.69;;;19.81;57.14
39449;BME280;25151;45.566;9.382;2023-03-19T21:02:19;100098.38;;;19.78;57.08
39449;BME280;25151;45.566;9.382;2023-03-19T21:05:39;100098.03;;;19.76;57.05
39449;BME280;25151;45.566;9.382;2023-03-19T21:08:49;100105.13;;;19.80;56.93
39449;BME280;25151;45.566;9.382;2023-03-19T21:11:54;100102.75;;;19.79;56.94
39449;BME280;25151;45.566;9.382;2023-03-19T21:14:59;100108.34;;;19.79;56.72
39449;BME280;25151;45.566;9.382;2023-03-19T21:18:22;100107.56;;;19.78;56.56
39449;BME280;25151;45.566;9.382;2023-03-19T21:21:29;100106.78;;;19.78;56.55
39449;BME280;25151;45.566;9.382;2023-03-19T21:24:31;100104.75;;;19.78;56.57
39449;BME280;25151;45.566;9.382;2023-03-19T21:27:35;100112.38;;;19.78;56.63
39449;BME280;25151;45.566;9.382;2023-03-19T21:30:42;100101.63;;;19.76;56.36
39449;BME280;25151;45.566;9.382;2023-03-19T21:33:47;100105.22;;;19.77;56.41
39449;BME280;25151;45.566;9.382;2023-03-19T21:36:53;100105.22;;;19.77;56.38
39449;BME280;25151;45.566;9.382;2023-03-19T21:39:55;100099.63;;;19.77;56.26
39449;BME280;25151;45.566;9.382;2023-03-19T21:43:00;100103.63;;;19.76;56.19
39449;BME280;25151;45.566;9.382;2023-03-19T21:46:05;100104.44;;;19.76;56.03
39449;BME280;25151;45.566;9.382;2023-03-19T21:49:11;100100.81;;;19.76;56.15
39449;BME280;25151;45.566;9.382;2023-03-19T21:52:18;100105.22;;;19.77;56.08
39449;BME280;25151;45.566;9.382;2023-03-19T21:55:24;100104.44;;;19.76;56.15
39449;BME280;25151;45.566;9.382;2023-03-19T21:58:33;100110.81;;;19.77;55.96
39449;BME280;25151;45.566;9.382;2023-03-19T22:01:35;100107.22;;;19.76;56.14
39449;BME280;25151;45.566;9.382;2023-03-19T22:04:36;100105.22;;;19.77;55.94
39449;BME280;25151;45.566;9.382;2023-03-19T22:07:42;100102.81;;;19.75;55.90
39449;BME280;25151;45.566;9.382;2023-03-19T22:10:44;100103.63;;;19.76;55.84
39449;BME280;25151;45.566;9.382;2023-03-19T22:13:46;100098.03;;;19.76;55.96
39449;BME280;25151;45.566;9.382;2023-03-19T22:16:52;100103.63;;;19.76;55.79
39449;BME280;25151;45.566;9.382;2023-03-19T22:19:53;100098.03;;;19.76;55.91
39449;BME280;25151;45.566;9.382;2023-03-19T22:22:54;100100.03;;;19.75;55.82
39449;BME280;25151;45.566;9.382;2023-03-19T22:25:57;100105.63;;;19.75;55.85
39449;BME280;25151;45.566;9.382;2023-03-19T22:29:03;100102.81;;;19.75;55.67
39449;BME280;25151;45.566;9.382;2023-03-19T22:32:22;100094.88;;;19.74;55.81
39449;BME280;25151;45.566;9.382;2023-03-19T22:35:24;100108.44;;;19.75;55.81
39449;BME280;25151;45.566;9.382;2023-03-19T22:38:25;100101.25;;;19.74;55.56
39449;BME280;25151;45.566;9.382;2023-03-19T22:41:30;100094.53;;;19.72;55.60
39449;BME280;25151;45.566;9.382;2023-03-19T22:44:33;100107.63;;;19.75;55.53
39449;BME280;25151;45.566;9.382;2023-03-19T22:47:36;100100.47;;;19.74;55.71
39449;BME280;25151;45.566;9.382;2023-03-19T22:50:38;100094.09;;;19.73;55.61
39449;BME280;25151;45.566;9.382;2023-03-19T22:53:39;100105.28;;;19.73;55.71
39449;BME280;25151;45.566;9.382;2023-03-19T22:56:46;100102.03;;;19.75;55.56
39449;BME280;25151;45.566;9.382;2023-03-19T22:59:47;100098.91;;;19.73;55.61